Time;durP1;ratioP1;P1;durP2;ratioP2;P2;SDS_P1;SDS_P2;PMS_P1;PMS_P2;Temp;Humidity;BMP_temperature;BMP_pressure;BME280_temperature;BME280_humidity;BME280_pressure;Samples;Min_cycle;Max_cycle;Signal;HPM_P1;HPM_P2
2023/12/20 00:02:05;;;;;;;4.72;2.10;;;;;;;;;;5125287;27;20039;-63
2023/12/20 00:04:31;;;;;;;9.35;2.50;;;;;;;;;;5125595;27;20047;-63
2023/12/20 00:06:57;;;;;;;6.45;2.42;;;;;;;;;;5124575;27;20598;-64
2023/12/20 00:09:23;;;;;;;7.28;2.53;;;;;;;;;;5105842;27;20050;-63
2023/12/20 00:11:49;;;;;;;7.13;3.58;;;;;;;;;;5125298;27;20093;-64
2023/12/20 00:14:15;;;;;;;5.93;2.03;;;;;;;;;;5126013;27;20066;-64
2023/12/20 00:16:42;;;;;;;11.02;2.97;;;;;;;;;;5124494;27;20134;-64
2023/12/20 00:19:08;;;;;;;8.00;2.33;;;;;;;;;;5105484;27;20378;-64
2023/12/20 00:21:34;;;;;;;6.90;2.67;;;;;;;;;;5124608;27;20103;-64
2023/12/20 00:24:00;;;;;;;6.00;2.65;;;;;;;;;;5124797;27;20489;-64
2023/12/20 00:26:28;;;;;;;11.20;3.28;;;;;;;;;;5105113;27;20080;-64
2023/12/20 00:28:54;;;;;;;7.50;2.15;;;;;;;;;;5120722;27;20119;-63
2023/12/20 00:31:20;;;;;;;7.28;2.35;;;;;;;;;;5124140;27;20031;-63
2023/12/20 00:33:47;;;;;;;4.45;2.00;;;;;;;;;;5124515;27;20073;-64
2023/12/20 00:36:13;;;;;;;7.50;2.63;;;;;;;;;;5124546;27;20038;-64
2023/12/20 00:38:39;;;;;;;8.27;2.53;;;;;;;;;;5125118;27;20047;-64
2023/12/20 00:41:05;;;;;;;6.47;2.20;;;;;;;;;;5125564;27;20130;-62
2023/12/20 00:43:31;;;;;;;8.35;3.10;;;;;;;;;;5125130;27;20210;-63
2023/12/20 00:45:59;;;;;;;8.23;2.45;;;;;;;;;;5105181;27;20383;-63
2023/12/20 00:48:27;;;;;;;9.32;3.63;;;;;;;;;;5124128;27;20146;-63
2023/12/20 00:50:53;;;;;;;9.15;2.55;;;;;;;;;;5123743;27;20474;-63
2023/12/20 00:53:19;;;;;;;7.05;2.35;;;;;;;;;;5124771;27;20803;-64
2023/12/20 00:55:46;;;;;;;12.68;2.95;;;;;;;;;;5105360;27;20715;-65
2023/12/20 00:58:12;;;;;;;13.38;4.00;;;;;;;;;;5124718;27;20049;-64
2023/12/20 01:00:38;;;;;;;10.40;3.15;;;;;;;;;;5123184;27;20182;-65
2023/12/20 01:03:04;;;;;;;9.63;3.75;;;;;;;;;;5124331;27;20471;-63
2023/12/20 01:05:30;;;;;;;8.43;3.17;;;;;;;;;;5124216;27;20035;-63
2023/12/20 01:07:56;;;;;;;7.55;2.50;;;;;;;;;;5124009;27;20039;-63
2023/12/20 01:10:23;;;;;;;13.18;3.30;;;;;;;;;;5124631;27;20039;-64
2023/12/20 01:12:49;;;;;;;8.15;2.63;;;;;;;;;;5124307;27;20035;-64
2023/12/20 01:15:15;;;;;;;8.27;3.20;;;;;;;;;;5124202;27;20509;-64
2023/12/20 01:17:41;;;;;;;11.65;2.83;;;;;;;;;;5123532;27;20236;-64
2023/12/20 01:20:08;;;;;;;8.13;3.83;;;;;;;;;;5102967;27;20035;-63
2023/12/20 01:22:35;;;;;;;10.02;2.75;;;;;;;;;;5123027;27;20047;-63
2023/12/20 01:25:02;;;;;;;10.02;3.83;;;;;;;;;;5123984;27;20047;-64
2023/12/20 01:27:29;;;;;;;9.93;3.42;;;;;;;;;;5123536;27;20039;-63
2023/12/20 01:29:55;;;;;;;10.98;4.03;;;;;;;;;;5123683;27;20280;-63
2023/12/20 01:32:21;;;;;;;9.98;4.25;;;;;;;;;;5122525;27;20805;-63
2023/12/20 01:34:48;;;;;;;11.07;4.60;;;;;;;;;;5123460;27;20043;-64
2023/12/20 01:37:14;;;;;;;7.70;2.85;;;;;;;;;;5121577;27;20046;-65
2023/12/20 01:39:40;;;;;;;11.60;3.03;;;;;;;;;;5123705;27;20035;-63
2023/12/20 01:42:08;;;;;;;13.13;2.75;;;;;;;;;;5104093;27;20069;-64
2023/12/20 01:44:34;;;;;;;9.90;3.28;;;;;;;;;;5104253;27;20039;-64
2023/12/20 01:47:00;;;;;;;10.05;3.35;;;;;;;;;;5122158;27;20213;-63
2023/12/20 01:49:26;;;;;;;12.90;3.88;;;;;;;;;;5123277;27;20084;-64
2023/12/20 01:51:52;;;;;;;9.98;3.40;;;;;;;;;;5103408;27;20046;-63
2023/12/20 01:54:20;;;;;;;12.38;3.28;;;;;;;;;;5123437;27;20385;-64
2023/12/20 01:56:46;;;;;;;8.50;3.03;;;;;;;;;;5104126;27;20367;-63
2023/12/20 01:59:13;;;;;;;11.93;3.33;;;;;;;;;;5122927;27;20069;-64
2023/12/20 02:01:39;;;;;;;10.60;3.65;;;;;;;;;;5122199;27;20459;-64
2023/12/20 02:04:05;;;;;;;7.43;3.03;;;;;;;;;;5122620;27;20091;-64
2023/12/20 02:06:31;;;;;;;11.38;3.53;;;;;;;;;;5122993;27;20071;-64
2023/12/20 02:09:00;;;;;;;6.38;2.70;;;;;;;;;;5104536;27;20075;-63
2023/12/20 02:11:27;;;;;;;14.73;4.03;;;;;;;;;;5123380;27;20182;-63
2023/12/20 02:13:54;;;;;;;17.00;5.20;;;;;;;;;;5122185;27;20621;-63
2023/12/20 02:16:20;;;;;;;12.75;3.90;;;;;;;;;;5121878;27;20099;-63
2023/12/20 02:18:46;;;;;;;9.23;4.13;;;;;;;;;;5103088;27;20050;-64
2023/12/20 02:21:12;;;;;;;9.48;3.22;;;;;;;;;;5123149;27;20100;-63
2023/12/20 02:23:38;;;;;;;13.65;4.10;;;;;;;;;;5123702;27;20451;-62
2023/12/20 02:26:05;;;;;;;18.90;4.60;;;;;;;;;;5123578;28;20039;-64
2023/12/20 02:28:32;;;;;;;12.35;4.13;;;;;;;;;;5103175;28;20108;-64
2023/12/20 02:30:59;;;;;;;14.50;4.13;;;;;;;;;;5122375;27;20424;-64
2023/12/20 02:33:25;;;;;;;11.40;3.08;;;;;;;;;;5121239;27;20035;-64
2023/12/20 02:35:52;;;;;;;10.77;3.78;;;;;;;;;;5122626;28;20459;-64
2023/12/20 02:38:18;;;;;;;14.32;4.50;;;;;;;;;;5122455;28;20070;-63
2023/12/20 02:40:44;;;;;;;12.25;4.47;;;;;;;;;;5122679;27;20084;-64
2023/12/20 02:43:10;;;;;;;11.13;3.78;;;;;;;;;;5122413;28;20039;-63
2023/12/20 02:45:37;;;;;;;12.10;4.13;;;;;;;;;;5101388;28;20487;-63
2023/12/20 02:48:03;;;;;;;13.05;4.05;;;;;;;;;;5123032;28;20115;-63
2023/12/20 02:50:29;;;;;;;12.48;3.90;;;;;;;;;;5102432;28;20473;-63
2023/12/20 02:52:55;;;;;;;12.02;4.40;;;;;;;;;;5122685;27;20027;-63
2023/12/20 02:55:21;;;;;;;16.33;3.92;;;;;;;;;;5120733;27;20474;-63
2023/12/20 02:57:53;;;;;;;11.98;4.20;;;;;;;;;;5124077;28;20096;-63
2023/12/20 03:00:19;;;;;;;11.10;5.03;;;;;;;;;;5124667;28;20069;-62
2023/12/20 03:02:45;;;;;;;11.13;4.00;;;;;;;;;;5124932;28;20066;-63
2023/12/20 03:05:11;;;;;;;11.60;4.55;;;;;;;;;;5123659;28;20166;-63
2023/12/20 03:07:38;;;;;;;10.57;3.55;;;;;;;;;;5122037;27;20066;-62
2023/12/20 03:10:04;;;;;;;11.75;3.67;;;;;;;;;;5122204;27;20035;-63
2023/12/20 03:12:30;;;;;;;13.48;4.88;;;;;;;;;;5121967;28;20122;-63
2023/12/20 03:14:56;;;;;;;9.10;4.30;;;;;;;;;;5103589;28;20039;-63
2023/12/20 03:17:23;;;;;;;12.65;4.20;;;;;;;;;;5122394;28;20047;-63
2023/12/20 03:19:49;;;;;;;15.95;5.15;;;;;;;;;;5103207;28;20043;-63
2023/12/20 03:22:15;;;;;;;9.27;3.90;;;;;;;;;;5121399;28;20058;-63
2023/12/20 03:24:43;;;;;;;7.72;3.63;;;;;;;;;;5122468;27;20478;-63
2023/12/20 03:27:09;;;;;;;13.48;5.05;;;;;;;;;;5103303;28;20112;-64
2023/12/20 03:29:36;;;;;;;16.02;4.82;;;;;;;;;;5125332;27;20482;-64
2023/12/20 03:32:04;;;;;;;8.63;4.38;;;;;;;;;;5107158;27;20042;-64
2023/12/20 03:34:30;;;;;;;17.88;4.82;;;;;;;;;;5125883;27;20126;-64
2023/12/20 03:36:56;;;;;;;15.60;4.53;;;;;;;;;;5124000;27;20156;-63
2023/12/20 03:39:22;;;;;;;11.20;4.60;;;;;;;;;;5125666;27;20084;-65
2023/12/20 03:41:48;;;;;;;18.73;5.60;;;;;;;;;;5126737;27;20063;-64
2023/12/20 03:44:16;;;;;;;11.55;4.80;;;;;;;;;;5126054;27;20051;-62
2023/12/20 03:46:42;;;;;;;17.00;4.30;;;;;;;;;;5125734;27;20082;-64
2023/12/20 03:49:08;;;;;;;16.48;5.10;;;;;;;;;;5125845;27;20035;-64
2023/12/20 03:51:40;;;;;;;17.67;4.93;;;;;;;;;;5126962;27;20109;-65
2023/12/20 03:54:06;;;;;;;10.70;4.45;;;;;;;;;;5127340;27;20054;-63
2023/12/20 03:56:32;;;;;;;14.07;4.90;;;;;;;;;;5126391;27;20028;-63
2023/12/20 03:58:59;;;;;;;14.05;4.47;;;;;;;;;;5126279;27;20107;-63
2023/12/20 04:01:25;;;;;;;9.88;4.00;;;;;;;;;;5124996;27;20050;-63
2023/12/20 04:03:52;;;;;;;13.70;4.18;;;;;;;;;;5125455;27;20199;-63
2023/12/20 04:06:21;;;;;;;15.18;5.72;;;;;;;;;;5124815;27;20058;-63
2023/12/20 04:08:47;;;;;;;15.20;4.35;;;;;;;;;;5106390;27;20047;-63
2023/12/20 04:11:13;;;;;;;11.50;4.63;;;;;;;;;;5126014;27;20440;-63
2023/12/20 04:13:39;;;;;;;20.55;5.03;;;;;;;;;;5105706;27;20046;-63
2023/12/20 04:16:05;;;;;;;14.63;4.70;;;;;;;;;;5125731;27;20053;-63
2023/12/20 04:18:31;;;;;;;17.05;4.78;;;;;;;;;;5123877;27;20565;-63
2023/12/20 04:21:03;;;;;;;15.83;6.00;;;;;;;;;;5101602;27;20104;-64
2023/12/20 04:23:29;;;;;;;15.85;5.68;;;;;;;;;;5122638;27;20042;-64
2023/12/20 04:25:56;;;;;;;17.10;4.78;;;;;;;;;;5123461;27;20070;-63
2023/12/20 04:28:22;;;;;;;23.80;5.95;;;;;;;;;;5124042;27;20054;-64
2023/12/20 04:30:48;;;;;;;12.10;4.80;;;;;;;;;;5123423;27;20039;-64
2023/12/20 04:33:14;;;;;;;14.98;4.65;;;;;;;;;;5122382;27;20062;-64
2023/12/20 04:35:42;;;;;;;15.82;4.30;;;;;;;;;;5103323;27;20448;-64
2023/12/20 04:38:09;;;;;;;20.25;6.05;;;;;;;;;;5122777;27;20046;-64
2023/12/20 04:40:35;;;;;;;13.10;3.83;;;;;;;;;;5122456;27;20058;-64
2023/12/20 04:43:01;;;;;;;16.10;5.40;;;;;;;;;;5122794;27;20968;-64
2023/12/20 04:45:28;;;;;;;9.98;3.92;;;;;;;;;;5101571;27;20039;-63
2023/12/20 04:47:54;;;;;;;12.93;4.35;;;;;;;;;;5119162;27;20566;-63
2023/12/20 04:50:21;;;;;;;16.42;4.85;;;;;;;;;;5101921;27;20039;-63
2023/12/20 04:52:47;;;;;;;19.23;4.30;;;;;;;;;;5121046;27;20509;-64
2023/12/20 04:55:13;;;;;;;15.43;4.57;;;;;;;;;;5122737;27;20129;-62
2023/12/20 04:57:40;;;;;;;15.13;4.40;;;;;;;;;;5121839;27;20047;-63
2023/12/20 05:00:08;;;;;;;17.65;6.63;;;;;;;;;;5121669;27;20039;-63
2023/12/20 05:02:34;;;;;;;13.70;5.15;;;;;;;;;;5120070;27;20440;-63
2023/12/20 05:05:00;;;;;;;13.45;4.65;;;;;;;;;;5119428;27;20031;-63
2023/12/20 05:07:26;;;;;;;16.75;4.40;;;;;;;;;;5121321;27;20049;-63
2023/12/20 05:09:53;;;;;;;22.15;4.68;;;;;;;;;;5122071;27;20062;-64
2023/12/20 05:12:19;;;;;;;16.05;5.00;;;;;;;;;;5121889;27;20046;-64
2023/12/20 05:14:46;;;;;;;10.88;4.53;;;;;;;;;;5102029;27;20039;-63
2023/12/20 05:17:12;;;;;;;10.52;3.83;;;;;;;;;;5121303;27;20155;-63
2023/12/20 05:19:38;;;;;;;13.57;3.83;;;;;;;;;;5101167;27;20350;-62
2023/12/20 05:22:05;;;;;;;15.57;4.45;;;;;;;;;;5102737;27;20401;-63
2023/12/20 05:24:31;;;;;;;15.00;4.43;;;;;;;;;;5118068;27;20092;-64
2023/12/20 05:26:57;;;;;;;12.10;3.75;;;;;;;;;;5119748;27;20039;-63
2023/12/20 05:29:23;;;;;;;16.50;5.63;;;;;;;;;;5120656;27;20664;-63
2023/12/20 05:31:49;;;;;;;11.68;4.65;;;;;;;;;;5102407;27;20062;-63
2023/12/20 05:34:15;;;;;;;10.27;4.50;;;;;;;;;;5119843;27;20050;-63
2023/12/20 05:36:41;;;;;;;8.80;4.78;;;;;;;;;;5118415;27;20050;-63
2023/12/20 05:39:07;;;;;;;17.17;4.20;;;;;;;;;;5120861;27;20035;-63
2023/12/20 05:41:34;;;;;;;11.60;4.38;;;;;;;;;;5084372;27;20031;-63
2023/12/20 05:44:01;;;;;;;18.42;5.85;;;;;;;;;;5101653;27;20072;-63
2023/12/20 05:46:27;;;;;;;15.02;4.88;;;;;;;;;;5102253;27;21018;-63
2023/12/20 05:48:53;;;;;;;16.38;5.03;;;;;;;;;;5120834;27;20039;-63
2023/12/20 05:51:20;;;;;;;13.77;4.20;;;;;;;;;;5120342;27;20054;-63
2023/12/20 05:53:46;;;;;;;13.68;4.72;;;;;;;;;;5101163;27;20100;-64
2023/12/20 05:56:13;;;;;;;14.05;3.95;;;;;;;;;;5122119;27;20092;-64
2023/12/20 05:58:40;;;;;;;16.50;4.32;;;;;;;;;;5120681;27;20042;-63
2023/12/20 06:01:07;;;;;;;16.13;5.03;;;;;;;;;;5121023;27;20045;-64
2023/12/20 06:03:33;;;;;;;17.80;4.82;;;;;;;;;;5121504;27;20043;-63
2023/12/20 06:06:00;;;;;;;15.85;5.28;;;;;;;;;;5118178;27;20448;-63
2023/12/20 06:08:26;;;;;;;14.40;4.07;;;;;;;;;;5120685;27;20449;-64
2023/12/20 06:10:52;;;;;;;19.48;5.35;;;;;;;;;;5119802;27;20067;-64
2023/12/20 06:13:18;;;;;;;16.15;3.40;;;;;;;;;;5099821;28;20553;-65
2023/12/20 06:15:45;;;;;;;16.48;4.72;;;;;;;;;;5102160;28;20047;-64
2023/12/20 06:18:11;;;;;;;14.48;4.32;;;;;;;;;;5101934;28;20072;-64
2023/12/20 06:20:37;;;;;;;16.70;4.38;;;;;;;;;;5121868;27;20115;-63
2023/12/20 06:23:03;;;;;;;12.90;4.97;;;;;;;;;;5120946;27;20047;-63
2023/12/20 06:25:29;;;;;;;17.75;5.35;;;;;;;;;;5121134;27;20135;-61
2023/12/20 06:27:55;;;;;;;10.93;4.53;;;;;;;;;;5116853;27;20134;-65
2023/12/20 06:30:21;;;;;;;17.17;5.60;;;;;;;;;;5119452;27;20450;-63
2023/12/20 06:32:48;;;;;;;20.67;5.45;;;;;;;;;;5100865;28;20509;-63
2023/12/20 06:35:14;;;;;;;13.13;5.20;;;;;;;;;;5120152;27;20064;-64
2023/12/20 06:37:42;;;;;;;11.00;4.65;;;;;;;;;;5116554;28;20142;-64
2023/12/20 06:40:09;;;;;;;17.80;4.85;;;;;;;;;;5119053;27;20507;-63
2023/12/20 06:42:35;;;;;;;15.88;5.60;;;;;;;;;;5119977;27;20467;-64
2023/12/20 06:45:01;;;;;;;13.88;5.47;;;;;;;;;;5120590;28;20054;-64
2023/12/20 06:47:27;;;;;;;12.68;4.50;;;;;;;;;;5119759;28;21027;-63
2023/12/20 06:49:53;;;;;;;14.73;5.30;;;;;;;;;;5120192;28;20095;-64
2023/12/20 06:52:19;;;;;;;15.35;3.95;;;;;;;;;;5116978;28;20039;-63
2023/12/20 06:54:45;;;;;;;15.57;4.90;;;;;;;;;;5118532;27;20550;-63
2023/12/20 06:57:12;;;;;;;8.57;4.13;;;;;;;;;;5116293;27;20038;-63
2023/12/20 06:59:44;;;;;;;12.68;4.30;;;;;;;;;;5119094;27;20043;-63
2023/12/20 07:02:10;;;;;;;16.45;5.05;;;;;;;;;;5119351;27;20486;-63
2023/12/20 07:04:40;;;;;;;9.88;5.00;;;;;;;;;;5103946;27;20130;-64
2023/12/20 07:07:07;;;;;;;19.02;6.70;;;;;;;;;;5121765;27;20047;-64
2023/12/20 07:09:33;;;;;;;20.13;5.28;;;;;;;;;;5123197;27;20455;-63
2023/12/20 07:11:59;;;;;;;19.33;5.40;;;;;;;;;;5104758;27;20047;-63
2023/12/20 07:14:26;;;;;;;12.77;4.90;;;;;;;;;;5123166;27;20071;-64
2023/12/20 07:16:52;;;;;;;22.73;5.63;;;;;;;;;;5125205;27;20510;-64
2023/12/20 07:19:18;;;;;;;11.70;5.18;;;;;;;;;;5121563;27;20586;-64
2023/12/20 07:21:44;;;;;;;11.63;4.28;;;;;;;;;;5122346;27;20088;-64
2023/12/20 07:24:10;;;;;;;25.33;6.13;;;;;;;;;;5104243;27;20040;-63
2023/12/20 07:26:37;;;;;;;17.70;5.47;;;;;;;;;;5125106;27;20039;-65
2023/12/20 07:29:04;;;;;;;17.45;5.65;;;;;;;;;;5125188;27;20050;-63
2023/12/20 07:31:30;;;;;;;13.35;4.28;;;;;;;;;;5125630;27;20699;-63
2023/12/20 07:33:56;;;;;;;17.13;5.65;;;;;;;;;;5126637;27;20054;-63
2023/12/20 07:36:23;;;;;;;13.68;5.43;;;;;;;;;;5104571;27;20452;-64
2023/12/20 07:38:49;;;;;;;19.98;5.35;;;;;;;;;;5126226;27;20043;-64
2023/12/20 07:41:21;;;;;;;16.23;5.40;;;;;;;;;;5106491;27;20074;-64
2023/12/20 07:43:47;;;;;;;16.33;4.30;;;;;;;;;;5126513;27;20054;-64
2023/12/20 07:46:13;;;;;;;13.50;4.70;;;;;;;;;;5125054;27;20805;-64
2023/12/20 07:48:39;;;;;;;10.57;4.35;;;;;;;;;;5107080;27;20043;-63
2023/12/20 07:51:09;;;;;;;16.77;6.38;;;;;;;;;;5123279;27;20110;-63
2023/12/20 07:53:36;;;;;;;19.63;5.30;;;;;;;;;;5125806;27;20038;-63
2023/12/20 07:56:02;;;;;;;15.50;5.25;;;;;;;;;;5125754;27;20067;-63
2023/12/20 07:58:29;;;;;;;10.73;4.10;;;;;;;;;;5125461;27;20469;-63
2023/12/20 08:00:56;;;;;;;15.10;5.05;;;;;;;;;;5125663;27;20494;-64
2023/12/20 08:03:22;;;;;;;15.68;5.22;;;;;;;;;;5126573;27;20066;-63
2023/12/20 08:05:48;;;;;;;24.00;7.05;;;;;;;;;;5124190;27;20469;-63
2023/12/20 08:08:14;;;;;;;15.35;4.68;;;;;;;;;;5105955;27;20065;-64
2023/12/20 08:10:40;;;;;;;19.00;5.32;;;;;;;;;;5125484;27;20494;-63
2023/12/20 08:13:07;;;;;;;16.38;5.25;;;;;;;;;;5106705;27;20166;-63
2023/12/20 08:15:33;;;;;;;15.55;5.22;;;;;;;;;;5119435;27;20082;-63
2023/12/20 08:18:02;;;;;;;14.57;5.57;;;;;;;;;;5122966;27;20047;-63
2023/12/20 08:20:28;;;;;;;9.40;3.80;;;;;;;;;;5120513;27;20054;-63
2023/12/20 08:22:54;;;;;;;13.75;5.05;;;;;;;;;;5121103;27;20539;-63
2023/12/20 08:25:20;;;;;;;12.73;4.97;;;;;;;;;;5102868;27;20029;-64
2023/12/20 08:27:46;;;;;;;16.63;3.90;;;;;;;;;;5102619;27;20039;-63
2023/12/20 08:30:14;;;;;;;15.90;4.32;;;;;;;;;;5121839;27;20134;-63
2023/12/20 08:32:41;;;;;;;12.63;4.25;;;;;;;;;;5121836;27;20050;-63
2023/12/20 08:35:07;;;;;;;17.70;4.80;;;;;;;;;;5122653;27;20043;-63
2023/12/20 08:37:33;;;;;;;13.48;5.25;;;;;;;;;;5123534;27;20355;-64
2023/12/20 08:39:59;;;;;;;12.55;4.45;;;;;;;;;;5123832;27;20129;-63
2023/12/20 08:42:30;;;;;;;11.50;4.55;;;;;;;;;;5123386;27;20490;-63
2023/12/20 08:44:57;;;;;;;12.68;4.88;;;;;;;;;;5124793;27;20051;-63
2023/12/20 08:47:23;;;;;;;13.32;4.60;;;;;;;;;;5123769;27;20047;-63
2023/12/20 08:49:50;;;;;;;12.48;3.85;;;;;;;;;;5123696;27;20043;-64
2023/12/20 08:52:16;;;;;;;11.90;5.18;;;;;;;;;;5123122;27;20100;-63
2023/12/20 08:54:42;;;;;;;11.45;4.00;;;;;;;;;;5124310;27;20128;-64
2023/12/20 08:57:08;;;;;;;14.00;4.90;;;;;;;;;;5123957;27;21207;-63
2023/12/20 08:59:35;;;;;;;18.48;4.85;;;;;;;;;;5124516;27;20046;-63
2023/12/20 09:02:01;;;;;;;16.95;4.13;;;;;;;;;;5119052;27;20375;-63
2023/12/20 09:04:28;;;;;;;7.47;3.28;;;;;;;;;;5122929;27;20534;-63
2023/12/20 09:06:54;;;;;;;12.85;3.28;;;;;;;;;;5122765;27;20031;-64
2023/12/20 09:09:20;;;;;;;9.68;3.47;;;;;;;;;;5124408;27;20035;-63
2023/12/20 09:11:48;;;;;;;9.80;3.20;;;;;;;;;;5103823;27;20482;-63
2023/12/20 09:14:14;;;;;;;9.10;3.42;;;;;;;;;;5122977;27;20039;-64
2023/12/20 09:16:40;;;;;;;8.38;3.13;;;;;;;;;;5123233;27;20062;-63
2023/12/20 09:19:06;;;;;;;9.38;3.70;;;;;;;;;;5087985;27;20043;-64
2023/12/20 09:21:32;;;;;;;8.32;2.92;;;;;;;;;;5122136;27;20042;-63
2023/12/20 09:23:58;;;;;;;16.63;4.28;;;;;;;;;;5124181;27;20112;-64
2023/12/20 09:26:24;;;;;;;7.70;2.40;;;;;;;;;;5123486;27;20452;-63
2023/12/20 09:28:50;;;;;;;5.10;1.95;;;;;;;;;;5124358;27;20088;-63
2023/12/20 09:31:17;;;;;;;7.45;2.95;;;;;;;;;;5123102;27;20050;-64
2023/12/20 09:33:43;;;;;;;6.70;2.78;;;;;;;;;;5123543;27;20038;-63
2023/12/20 09:36:09;;;;;;;8.80;2.92;;;;;;;;;;5121168;27;20076;-64
2023/12/20 09:38:35;;;;;;;9.18;2.55;;;;;;;;;;5123160;27;20047;-63
2023/12/20 09:41:04;;;;;;;6.93;3.03;;;;;;;;;;5123554;27;20043;-63
2023/12/20 09:43:31;;;;;;;5.43;2.60;;;;;;;;;;5104466;27;20046;-63
2023/12/20 09:45:59;;;;;;;6.57;2.83;;;;;;;;;;5086616;27;20126;-63
2023/12/20 09:48:27;;;;;;;7.68;2.50;;;;;;;;;;5123707;27;20121;-63
2023/12/20 09:50:53;;;;;;;6.75;1.92;;;;;;;;;;5122049;27;20046;-63
2023/12/20 09:53:20;;;;;;;6.43;2.67;;;;;;;;;;5123387;27;20039;-63
2023/12/20 09:55:46;;;;;;;11.43;2.65;;;;;;;;;;5123268;27;20536;-63
2023/12/20 09:58:12;;;;;;;13.25;3.97;;;;;;;;;;5122799;27;20474;-63
2023/12/20 10:00:38;;;;;;;10.07;2.13;;;;;;;;;;5105409;27;20484;-64
2023/12/20 10:03:07;;;;;;;6.45;2.25;;;;;;;;;;5123599;27;21044;-63
2023/12/20 10:05:33;;;;;;;14.55;3.67;;;;;;;;;;5122836;27;20138;-63
2023/12/20 10:08:00;;;;;;;6.03;1.80;;;;;;;;;;5121520;27;20497;-63
2023/12/20 10:10:26;;;;;;;8.48;3.50;;;;;;;;;;5123630;27;20049;-63
2023/12/20 10:13:02;;;;;;;13.48;2.47;;;;;;;;;;5122434;27;20043;-63
2023/12/20 10:15:28;;;;;;;9.45;2.42;;;;;;;;;;5122351;27;20051;-63
2023/12/20 10:17:54;;;;;;;7.47;2.20;;;;;;;;;;5121262;27;20178;-63
2023/12/20 10:20:21;;;;;;;5.07;1.98;;;;;;;;;;5102800;27;20039;-63
2023/12/20 10:22:48;;;;;;;5.18;1.75;;;;;;;;;;5122235;27;20062;-63
2023/12/20 10:25:14;;;;;;;6.72;2.83;;;;;;;;;;5122698;27;20099;-63
2023/12/20 10:27:41;;;;;;;5.78;2.25;;;;;;;;;;5123244;28;20079;-63
2023/12/20 10:30:07;;;;;;;6.18;2.65;;;;;;;;;;5122800;27;20164;-63
2023/12/20 10:32:33;;;;;;;6.88;1.80;;;;;;;;;;5123428;28;20459;-63
2023/12/20 10:35:00;;;;;;;8.25;2.03;;;;;;;;;;5116915;27;20038;-63
2023/12/20 10:37:26;;;;;;;7.35;2.60;;;;;;;;;;5120909;27;20138;-63
2023/12/20 10:39:56;;;;;;;7.18;2.80;;;;;;;;;;5104904;27;20043;-63
2023/12/20 10:42:23;;;;;;;7.90;2.22;;;;;;;;;;5107293;27;20221;-64
2023/12/20 10:44:53;;;;;;;9.32;2.47;;;;;;;;;;5107274;27;20351;-63
2023/12/20 10:47:20;;;;;;;5.13;1.85;;;;;;;;;;5126804;27;20054;-63
2023/12/20 10:49:46;;;;;;;15.80;2.95;;;;;;;;;;5107403;27;20035;-63
2023/12/20 10:52:13;;;;;;;9.85;2.53;;;;;;;;;;5106366;27;21358;-63
2023/12/20 10:54:41;;;;;;;10.00;2.50;;;;;;;;;;5125459;27;20047;-64
2023/12/20 10:57:07;;;;;;;6.05;2.22;;;;;;;;;;5125530;27;21314;-63
2023/12/20 10:59:34;;;;;;;7.18;2.72;;;;;;;;;;5126735;27;20031;-64
2023/12/20 11:02:05;;;;;;;6.05;2.20;;;;;;;;;;5107045;27;20065;-64
2023/12/20 11:04:35;;;;;;;5.95;2.65;;;;;;;;;;5126660;27;20043;-64
2023/12/20 11:07:37;;;;;;;4.65;1.73;;;;;;;;;;5124317;27;20050;-64
2023/12/20 11:10:24;;;;;;;6.80;2.08;;;;;;;;;;5112268;27;20514;-64
2023/12/20 11:12:54;;;;;;;6.10;1.95;;;;;;;;;;5126181;27;20039;-63
2023/12/20 11:15:20;;;;;;;6.75;2.25;;;;;;;;;;5104404;27;20066;-64
2023/12/20 11:17:46;;;;;;;5.95;2.17;;;;;;;;;;5124773;27;20517;-64
2023/12/20 11:20:13;;;;;;;11.63;2.75;;;;;;;;;;5124317;27;20074;-63
2023/12/20 11:22:41;;;;;;;5.20;1.90;;;;;;;;;;5124251;27;20051;-63
2023/12/20 11:25:11;;;;;;;6.72;2.25;;;;;;;;;;5125248;27;20359;-65
2023/12/20 11:27:40;;;;;;;10.75;2.53;;;;;;;;;;5124867;27;20202;-64
2023/12/20 11:30:08;;;;;;;4.82;2.40;;;;;;;;;;5124344;27;20043;-64
2023/12/20 11:32:35;;;;;;;4.72;1.52;;;;;;;;;;5125110;27;20039;-63
2023/12/20 11:35:16;;;;;;;3.53;1.95;;;;;;;;;;5124184;27;20039;-63
2023/12/20 11:37:43;;;;;;;7.05;2.00;;;;;;;;;;5124089;27;20046;-64
2023/12/20 11:40:12;;;;;;;10.70;2.30;;;;;;;;;;5105626;27;20051;-63
2023/12/20 11:42:49;;;;;;;8.88;2.00;;;;;;;;;;5125163;27;20043;-63
2023/12/20 11:45:16;;;;;;;8.20;2.63;;;;;;;;;;5124276;27;20130;-64
2023/12/20 11:47:58;;;;;;;11.38;2.50;;;;;;;;;;5125083;27;20043;-64
2023/12/20 11:50:24;;;;;;;11.98;2.45;;;;;;;;;;5124096;27;20046;-64
2023/12/20 11:52:51;;;;;;;10.30;2.47;;;;;;;;;;5124702;27;20053;-64
2023/12/20 11:55:18;;;;;;;5.20;1.95;;;;;;;;;;5123858;27;20502;-64
2023/12/20 11:57:44;;;;;;;8.10;2.42;;;;;;;;;;5125144;27;20047;-64
2023/12/20 12:00:11;;;;;;;8.20;2.25;;;;;;;;;;5123789;27;20043;-64
2023/12/20 12:02:37;;;;;;;10.88;2.83;;;;;;;;;;5124255;27;20039;-64
2023/12/20 12:05:05;;;;;;;9.10;2.13;;;;;;;;;;5105131;27;20165;-64
2023/12/20 12:07:32;;;;;;;12.80;2.88;;;;;;;;;;5104202;27;20103;-64
2023/12/20 12:09:58;;;;;;;9.48;1.98;;;;;;;;;;5122737;27;20060;-64
2023/12/20 12:12:26;;;;;;;5.05;1.80;;;;;;;;;;5124467;27;20148;-64
2023/12/20 12:14:56;;;;;;;7.35;2.08;;;;;;;;;;5124172;27;20058;-64
2023/12/20 12:17:28;;;;;;;10.55;2.58;;;;;;;;;;5123853;27;20058;-64
2023/12/20 12:20:03;;;;;;;7.85;2.25;;;;;;;;;;5122445;27;20039;-64
2023/12/20 12:22:30;;;;;;;8.13;2.45;;;;;;;;;;5123181;27;20126;-64
2023/12/20 12:24:59;;;;;;;6.97;2.80;;;;;;;;;;5122380;27;20130;-64
2023/12/20 12:27:25;;;;;;;7.32;1.95;;;;;;;;;;5123980;27;20039;-64
2023/12/20 12:30:07;;;;;;;10.25;2.83;;;;;;;;;;5123575;27;20443;-63
2023/12/20 12:32:33;;;;;;;8.18;2.60;;;;;;;;;;5123768;27;20114;-63
2023/12/20 12:34:59;;;;;;;9.35;3.10;;;;;;;;;;5104612;27;20585;-64
2023/12/20 12:37:26;;;;;;;10.38;2.97;;;;;;;;;;5104268;27;20039;-65
2023/12/20 12:39:55;;;;;;;8.77;3.15;;;;;;;;;;5123757;27;20125;-63
2023/12/20 12:42:25;;;;;;;7.60;2.85;;;;;;;;;;5122977;27;20043;-64
2023/12/20 12:44:52;;;;;;;10.90;2.75;;;;;;;;;;5123224;27;20535;-64
2023/12/20 12:47:18;;;;;;;10.07;2.42;;;;;;;;;;5122897;27;20819;-63
2023/12/20 12:49:44;;;;;;;9.07;2.20;;;;;;;;;;5123666;27;20047;-64
2023/12/20 12:52:10;;;;;;;9.07;2.60;;;;;;;;;;5103479;27;20073;-64
2023/12/20 12:54:37;;;;;;;8.65;2.35;;;;;;;;;;5123477;27;20043;-64
2023/12/20 12:57:03;;;;;;;11.50;3.30;;;;;;;;;;5122636;27;20043;-64
2023/12/20 12:59:29;;;;;;;6.25;2.22;;;;;;;;;;5123036;27;20035;-64
2023/12/20 13:01:55;;;;;;;13.57;2.53;;;;;;;;;;5121621;27;20042;-64
2023/12/20 13:04:21;;;;;;;7.88;2.72;;;;;;;;;;5123615;27;20034;-64
2023/12/20 13:06:48;;;;;;;8.32;2.92;;;;;;;;;;5122830;27;20109;-64
2023/12/20 13:09:15;;;;;;;7.68;3.15;;;;;;;;;;5103025;27;20062;-64
2023/12/20 13:11:41;;;;;;;17.58;2.78;;;;;;;;;;5122589;27;20130;-64
2023/12/20 13:14:10;;;;;;;6.75;2.60;;;;;;;;;;5123540;27;20531;-64
2023/12/20 13:16:36;;;;;;;15.10;2.95;;;;;;;;;;5123708;27;20061;-63
2023/12/20 13:19:02;;;;;;;7.63;2.15;;;;;;;;;;5123840;27;20045;-64
2023/12/20 13:21:30;;;;;;;7.97;2.10;;;;;;;;;;5122279;27;20049;-64
2023/12/20 13:23:56;;;;;;;4.43;1.52;;;;;;;;;;5114113;27;20072;-63
2023/12/20 13:26:23;;;;;;;5.35;1.77;;;;;;;;;;5122298;27;20035;-63
2023/12/20 13:28:49;;;;;;;5.00;1.92;;;;;;;;;;5116972;27;20043;-64
2023/12/20 13:31:15;;;;;;;4.60;2.05;;;;;;;;;;5121085;27;20050;-63
2023/12/20 13:33:41;;;;;;;7.75;3.13;;;;;;;;;;5120948;27;20110;-63
2023/12/20 13:36:07;;;;;;;4.88;2.60;;;;;;;;;;5100251;27;20043;-63
2023/12/20 13:38:33;;;;;;;9.95;2.47;;;;;;;;;;5119686;27;20043;-63
2023/12/20 13:41:00;;;;;;;6.35;1.73;;;;;;;;;;5101699;27;20440;-63
2023/12/20 13:43:26;;;;;;;5.53;1.70;;;;;;;;;;5120785;27;20478;-63
2023/12/20 13:45:52;;;;;;;5.30;1.88;;;;;;;;;;5115700;27;20454;-63
2023/12/20 13:48:18;;;;;;;4.15;1.77;;;;;;;;;;5101950;27;20498;-63
2023/12/20 13:50:44;;;;;;;6.65;1.73;;;;;;;;;;5119010;27;20047;-63
2023/12/20 13:53:11;;;;;;;3.92;1.40;;;;;;;;;;5120117;27;20050;-64
2023/12/20 13:55:37;;;;;;;3.25;1.45;;;;;;;;;;5100880;27;20067;-64
2023/12/20 13:58:03;;;;;;;5.30;1.60;;;;;;;;;;5119397;27;20091;-63
2023/12/20 14:00:36;;;;;;;11.75;1.83;;;;;;;;;;5120817;27;20045;-64
2023/12/20 14:03:03;;;;;;;4.97;1.60;;;;;;;;;;5120563;27;20143;-63
2023/12/20 14:05:29;;;;;;;5.68;1.90;;;;;;;;;;5119186;27;20122;-63
2023/12/20 14:07:58;;;;;;;4.20;1.50;;;;;;;;;;5120128;27;20047;-64
2023/12/20 14:10:27;;;;;;;2.78;1.20;;;;;;;;;;5099672;27;20131;-64
2023/12/20 14:12:56;;;;;;;6.15;1.67;;;;;;;;;;5119776;27;20035;-64
2023/12/20 14:15:25;;;;;;;9.02;1.25;;;;;;;;;;5119108;27;20039;-64
2023/12/20 14:17:51;;;;;;;8.23;1.92;;;;;;;;;;5119909;27;20055;-63
2023/12/20 14:20:17;;;;;;;7.45;2.30;;;;;;;;;;5118959;27;20050;-64
2023/12/20 14:22:44;;;;;;;6.07;2.25;;;;;;;;;;5118887;27;20529;-63
2023/12/20 14:25:16;;;;;;;4.68;1.17;;;;;;;;;;5114674;27;20047;-63
2023/12/20 14:27:43;;;;;;;3.38;1.50;;;;;;;;;;5119495;27;20482;-63
2023/12/20 14:30:10;;;;;;;7.10;2.03;;;;;;;;;;5120381;28;20073;-63
2023/12/20 14:32:39;;;;;;;7.72;1.50;;;;;;;;;;5119755;27;20043;-63
2023/12/20 14:35:06;;;;;;;4.97;2.15;;;;;;;;;;5100426;28;20087;-64